Ashland, OR

3:40 PM PST on February 26, 2015 (GMT -0800)
Old Highway 99 | Change Station
CLOSE
Current Station
Personal Weather Station
Location: Ashland, OR
Elevation: 2320 ft
Nearby Weather Stations

Elev 2320 ft 42.12 °N, 122.61 °W | Updated 3 minutes ago

Rain
Rain
44.9 °F
Feels Like 45 °F
N
1.0
Wind Variable Wind from NNW
Gusts 1.0 mph

Today
High -- | Low -- °F
--% Chance of Precip.
Yesterday
High -- | Low -- °F
Precip. -- in
6:50 AM 5:57 PM
Waxing Gibbous, 63% visible
Pressure 30.14 in
Visibility 7.0 miles
Clouds Scattered Clouds 4500 ft
Overcast 5500 ft
Windchill 45 °F
Dew Point 42 °F
Humidity 89%
Rainfall 0.05 in
Snow Depth Not available.
UV 1 out of 12
Pollen 5.60 out of 12
Air Quality Not available.
Flu Activity Not available.
METAR KMFR 262253Z 00000KT 7SM -RA SCT045 OVC055 10/05 A3012 RMK AO2 SLP204 P0001 T01000050

More Conditions Fewer Conditions

Pressure 30.14 in
Visibility 7.0 miles
Clouds Scattered Clouds 4500 ft
Overcast 5500 ft
Windchill 45 °F
Dew Point 42 °F
Humidity 89%
Rainfall 0.05 in
Snow Depth Not available.
UV 1 out of 12
Pollen 5.60 out of 12
Air Quality Not available.
Flu Activity Not available.
METAR KMFR 262253Z 00000KT 7SM -RA SCT045 OVC055 10/05 A3012 RMK AO2 SLP204 P0001 T01000050

More Conditions Fewer Conditions

10-Day Weather Forecast

Almanac

Astronomy

Feb. 26, 2015 Rise Set
Actual Time
Civil Twilight
Nautical Twilight
Astronomical Twilight
Moon
Length of Visible Light
Length of Day
Tomorrow will be .
, % of the Moon is Illuminated

Today's Extremes

State Highs State Lows

Community

WunderPhotos

Upload Photos

1,800,529 photos uploaded!

WunderBlogs® & News

Nearby

Air Quality

  Air Quality AQ Index Pollutant
Not available.

Snow Depth

Station Depth Elevation

Earthquake Activity

City Distance Mag. Time & Date
Minimum magnitude displayed is 2.5.

Coastal Water Temperatures

Place Temperature

Nearby Weather Stations